createdAt,value
2023-04-27T00:00:15.464Z,100953.22
2023-04-27T00:02:16.940Z,100955.72
2023-04-27T00:04:18.757Z,100936.94
2023-04-27T00:06:20.517Z,100946.28
2023-04-27T00:08:22.033Z,100951.72
2023-04-27T00:10:23.648Z,100958.25
2023-04-27T00:12:25.045Z,100953.28
2023-04-27T00:14:26.490Z,100954.97
2023-04-27T00:16:28.006Z,100959.94
2023-04-27T00:18:32.827Z,100955.09
2023-04-27T00:20:34.232Z,100958.44
2023-04-27T00:22:35.788Z,100943.94
2023-04-27T00:24:37.260Z,100961.22
2023-04-27T00:26:38.681Z,100963.56
2023-04-27T00:28:40.386Z,100962.13
2023-04-27T00:30:41.962Z,100949.63
2023-04-27T00:32:43.414Z,100977.03
2023-04-27T00:34:45.032Z,100973.56
2023-04-27T00:36:46.595Z,100959.13
2023-04-27T00:38:48.026Z,100975.81
2023-04-27T00:40:49.609Z,100980.56
2023-04-27T00:42:51.145Z,100976.28
2023-04-27T00:44:52.558Z,100979.13
2023-04-27T00:46:54.546Z,100975.78
2023-04-27T00:48:56.572Z,100980.28
2023-04-27T00:50:58.260Z,100961.16
2023-04-27T00:52:59.888Z,100985.94
2023-04-27T00:55:03.160Z,100970.00
2023-04-27T00:57:04.864Z,100976.84
2023-04-27T00:59:06.433Z,100987.47
2023-04-27T01:01:07.992Z,100981.50
2023-04-27T01:03:09.710Z,100980.84
2023-04-27T01:05:12.089Z,100961.44
2023-04-27T01:07:13.582Z,100966.34
2023-04-27T01:09:15.283Z,100951.81
2023-04-27T01:11:17.205Z,100946.50
2023-04-27T01:13:18.759Z,100984.50
2023-04-27T01:15:20.143Z,100979.09
2023-04-27T01:17:21.702Z,100985.34
2023-04-27T01:19:23.280Z,100967.06
2023-04-27T01:21:25.262Z,100984.09
2023-04-27T01:23:26.759Z,100984.50
2023-04-27T01:25:28.236Z,100976.44
2023-04-27T01:27:29.662Z,100978.97
2023-04-27T01:29:31.145Z,100979.91
2023-04-27T01:31:32.724Z,100981.94
2023-04-27T01:33:34.168Z,100988.28
2023-04-27T01:35:35.756Z,100988.38
2023-04-27T01:37:37.373Z,100981.34
2023-04-27T01:39:38.912Z,100959.03
2023-04-27T01:41:40.298Z,100984.13
2023-04-27T01:43:41.891Z,100949.66
2023-04-27T01:45:43.300Z,100983.47
2023-04-27T01:47:44.825Z,100990.66
2023-04-27T01:49:46.475Z,100975.47
2023-04-27T01:51:47.864Z,100980.69
2023-04-27T01:53:49.528Z,100968.13
2023-04-27T01:55:50.920Z,100987.38
2023-04-27T01:57:52.404Z,100965.63
2023-04-27T01:59:53.987Z,100965.34
2023-04-27T02:01:55.594Z,100995.38
2023-04-27T02:03:57.393Z,100973.47
2023-04-27T02:05:59.422Z,100986.78
2023-04-27T02:08:01.032Z,100972.44
2023-04-27T02:10:02.588Z,100977.50
2023-04-27T02:12:04.460Z,100968.41
2023-04-27T02:14:05.888Z,100991.25
2023-04-27T02:16:07.564Z,100982.16
2023-04-27T02:18:09.171Z,100981.53
2023-04-27T02:20:11.223Z,100989.66
2023-04-27T02:22:12.988Z,100971.09
2023-04-27T02:24:14.574Z,100984.84
2023-04-27T02:26:20.602Z,100987.28
2023-04-27T02:28:22.042Z,100987.63
2023-04-27T02:30:24.157Z,100991.84
2023-04-27T02:32:26.214Z,100963.53
2023-04-27T02:34:27.623Z,100978.59
2023-04-27T02:36:29.509Z,100978.44
2023-04-27T02:38:31.071Z,100972.53
2023-04-27T02:40:32.595Z,100984.75
2023-04-27T02:42:34.182Z,100973.03
2023-04-27T02:44:35.830Z,100977.66
2023-04-27T02:46:37.234Z,100982.75
2023-04-27T02:48:38.721Z,100996.66
2023-04-27T02:50:41.323Z,100991.25
2023-04-27T02:52:42.759Z,100999.09
2023-04-27T02:54:44.237Z,100975.47
2023-04-27T02:56:45.623Z,101002.81
2023-04-27T02:58:47.050Z,101004.31
2023-04-27T03:00:53.966Z,101008.69
2023-04-27T03:02:56.118Z,100977.75
2023-04-27T03:04:57.773Z,101002.31
2023-04-27T03:06:59.191Z,101005.91
2023-04-27T03:09:01.020Z,101014.41
2023-04-27T03:11:02.419Z,101016.38
2023-04-27T03:13:04.063Z,100985.75
2023-04-27T03:15:05.864Z,101009.59
2023-04-27T03:17:07.295Z,100996.88
2023-04-27T03:19:08.943Z,101010.38
2023-04-27T03:21:11.716Z,100991.66
2023-04-27T03:23:13.188Z,101005.16
2023-04-27T03:25:14.769Z,100988.97
2023-04-27T03:27:16.319Z,101002.53
2023-04-27T03:29:18.676Z,101009.03
2023-04-27T03:31:20.194Z,101012.50
2023-04-27T03:33:21.753Z,101011.56
2023-04-27T03:35:23.184Z,101024.16
2023-04-27T03:37:24.751Z,101013.59
2023-04-27T03:39:27.330Z,101015.97
2023-04-27T03:41:28.773Z,101014.84
2023-04-27T03:43:30.449Z,101031.41
2023-04-27T03:45:31.949Z,101010.91
2023-04-27T03:47:33.471Z,101023.72
2023-04-27T03:49:35.844Z,101022.03
2023-04-27T03:51:37.263Z,101031.91
2023-04-27T03:53:38.734Z,101029.22
2023-04-27T03:55:41.547Z,101035.34
2023-04-27T03:57:42.938Z,101025.41
2023-04-27T03:59:44.332Z,101031.84
2023-04-27T04:01:45.808Z,101019.06
2023-04-27T04:03:47.491Z,101017.06
2023-04-27T04:05:49.228Z,101023.41
2023-04-27T04:07:50.815Z,101028.06
2023-04-27T04:09:52.374Z,101034.34
2023-04-27T04:11:53.808Z,101045.94
2023-04-27T04:13:55.445Z,101045.72
2023-04-27T04:16:08.255Z,101031.19
2023-04-27T04:18:09.794Z,101037.81
2023-04-27T04:20:12.000Z,101049.00
2023-04-27T04:22:13.490Z,101032.88
2023-04-27T04:24:14.874Z,101046.22
2023-04-27T04:26:16.365Z,101053.25
2023-04-27T04:28:17.833Z,101053.13
2023-04-27T04:30:19.286Z,101050.47
2023-04-27T04:32:20.798Z,101053.53
2023-04-27T04:34:22.272Z,101036.56
2023-04-27T04:36:23.707Z,101047.69
2023-04-27T04:38:25.277Z,101053.81
2023-04-27T04:40:26.972Z,101066.53
2023-04-27T04:42:28.383Z,101063.59
2023-04-27T04:44:29.969Z,101072.47
2023-04-27T04:46:31.464Z,101052.16
2023-04-27T04:48:32.940Z,101075.19
2023-04-27T04:50:34.507Z,101059.38
2023-04-27T04:52:36.076Z,101048.31
2023-04-27T04:54:37.518Z,101057.84
2023-04-27T04:56:39.227Z,101071.13
2023-04-27T04:58:40.723Z,101073.84
2023-04-27T05:00:42.148Z,101070.53
2023-04-27T05:02:43.823Z,101068.88
2023-04-27T05:04:45.484Z,101082.28
2023-04-27T05:06:47.039Z,101077.00
2023-04-27T05:08:48.569Z,101041.53
2023-04-27T05:10:53.800Z,101081.22
2023-04-27T05:12:55.228Z,101079.22
2023-04-27T05:14:56.809Z,101079.19
2023-04-27T05:16:58.429Z,101080.09
2023-04-27T05:18:59.848Z,101078.84
2023-04-27T05:21:01.568Z,101078.00
2023-04-27T05:23:03.387Z,101057.81
2023-04-27T05:25:05.369Z,101083.53
2023-04-27T05:27:06.795Z,101071.09
2023-04-27T05:29:08.305Z,101080.34
2023-04-27T05:31:10.078Z,101092.84
2023-04-27T05:33:11.843Z,101069.69
2023-04-27T05:35:13.407Z,101088.84
2023-04-27T05:37:14.825Z,101090.75
2023-04-27T05:39:16.486Z,101103.00
2023-04-27T05:41:18.158Z,101094.50
2023-04-27T05:43:19.796Z,101082.97
2023-04-27T05:45:21.665Z,101088.59
2023-04-27T05:47:23.235Z,101107.69
2023-04-27T05:49:24.643Z,101110.34
2023-04-27T05:51:26.280Z,101106.75
2023-04-27T05:53:28.664Z,101100.13
2023-04-27T05:55:30.112Z,101115.25
2023-04-27T05:57:32.094Z,101115.78
2023-04-27T05:59:33.612Z,101116.63
2023-04-27T06:01:35.020Z,101121.28
2023-04-27T06:03:36.786Z,101106.47
2023-04-27T06:05:38.557Z,101117.63
2023-04-27T06:07:40.160Z,101124.50
2023-04-27T06:09:42.358Z,101101.09
2023-04-27T06:11:43.830Z,101120.19
2023-04-27T06:13:45.221Z,101126.56
2023-04-27T06:15:46.906Z,101130.28
2023-04-27T06:17:48.389Z,101133.28
2023-04-27T06:19:49.828Z,101109.00
2023-04-27T06:21:51.387Z,101130.06
2023-04-27T06:23:52.856Z,101125.25
2023-04-27T06:25:54.276Z,101126.25
2023-04-27T06:27:59.487Z,101128.81
2023-04-27T06:30:01.063Z,101130.47
2023-04-27T06:32:02.606Z,101126.41
2023-04-27T06:34:04.124Z,101124.94
2023-04-27T06:36:05.875Z,101117.06
2023-04-27T06:38:08.041Z,101134.41
2023-04-27T06:40:10.058Z,101121.03
2023-04-27T06:42:11.844Z,101128.38
2023-04-27T06:44:13.246Z,101128.91
2023-04-27T06:46:15.256Z,101133.88
2023-04-27T06:48:17.093Z,101105.34
2023-04-27T06:50:18.637Z,101123.53
2023-04-27T06:52:20.268Z,101134.72
2023-04-27T06:54:21.759Z,101136.16
2023-04-27T06:56:23.240Z,101121.22
2023-04-27T06:58:24.716Z,101128.88
2023-04-27T07:00:26.359Z,101119.31
2023-04-27T07:02:27.802Z,101132.41
2023-04-27T07:04:29.474Z,101139.13
2023-04-27T07:06:31.181Z,101124.47
2023-04-27T07:08:32.569Z,101131.63
2023-04-27T07:10:34.124Z,101131.44
2023-04-27T07:12:36.164Z,101122.66
2023-04-27T07:14:37.592Z,101132.84
2023-04-27T07:16:39.216Z,101133.25
2023-04-27T07:18:43.176Z,101118.88
2023-04-27T07:20:44.887Z,101140.53
2023-04-27T07:22:46.344Z,101136.16
2023-04-27T07:24:48.135Z,101120.84
2023-04-27T07:26:49.557Z,101129.63
2023-04-27T07:28:51.204Z,101149.59
2023-04-27T07:30:52.622Z,101147.78
2023-04-27T07:32:54.051Z,101139.06
2023-04-27T07:34:56.109Z,101134.13
2023-04-27T07:36:57.621Z,101117.88
2023-04-27T07:38:59.050Z,101135.06
2023-04-27T07:41:01.732Z,101136.28
2023-04-27T07:43:03.306Z,101131.16
2023-04-27T07:45:05.221Z,101123.25
2023-04-27T07:47:06.888Z,101123.56
2023-04-27T07:49:08.364Z,101126.53
2023-04-27T07:51:09.757Z,101114.06
2023-04-27T07:53:11.426Z,101126.41
2023-04-27T07:55:12.979Z,101128.72
2023-04-27T07:57:14.366Z,101128.59
2023-04-27T07:59:16.115Z,101127.06
2023-04-27T08:01:19.018Z,101132.59
2023-04-27T08:03:22.456Z,101130.28
2023-04-27T08:05:24.598Z,101117.41
2023-04-27T08:07:27.067Z,101132.44
2023-04-27T08:09:28.983Z,101119.09
2023-04-27T08:11:30.760Z,101148.16
2023-04-27T08:13:33.805Z,101139.94
2023-04-27T08:15:36.000Z,101135.88
2023-04-27T08:17:37.456Z,101124.03
2023-04-27T08:19:38.984Z,101131.38
2023-04-27T08:21:40.390Z,101113.91
2023-04-27T08:23:42.599Z,101112.53
2023-04-27T08:25:44.058Z,101117.72
2023-04-27T08:27:45.439Z,101120.13
2023-04-27T08:29:48.237Z,101131.94
2023-04-27T08:31:49.949Z,101137.59
2023-04-27T08:33:55.080Z,101138.06
2023-04-27T08:35:56.722Z,101132.84
2023-04-27T08:37:58.397Z,101118.84
2023-04-27T08:39:59.811Z,101132.88
2023-04-27T08:42:01.431Z,101115.16
2023-04-27T08:44:06.709Z,101134.97
2023-04-27T08:46:08.153Z,101134.19
2023-04-27T08:48:09.872Z,101129.91
2023-04-27T08:50:12.745Z,101131.72
2023-04-27T08:52:15.315Z,101142.06
2023-04-27T08:54:17.120Z,101125.28
2023-04-27T08:56:21.757Z,101113.25
2023-04-27T08:58:35.325Z,101093.06
2023-04-27T09:00:41.392Z,101126.72
2023-04-27T09:02:47.258Z,101143.84
2023-04-27T09:04:49.001Z,101144.03
2023-04-27T09:06:50.735Z,101133.25
2023-04-27T09:08:52.142Z,101139.25
2023-04-27T09:10:53.930Z,101126.06
2023-04-27T09:12:59.755Z,101133.31
2023-04-27T09:15:02.742Z,101124.00
2023-04-27T09:17:04.182Z,101127.72
2023-04-27T09:19:05.810Z,101129.94
2023-04-27T09:21:07.278Z,101118.72
2023-04-27T09:23:08.682Z,101144.28
2023-04-27T09:25:10.168Z,101130.19
2023-04-27T09:27:19.964Z,101122.25
2023-04-27T09:29:32.426Z,101139.56
2023-04-27T09:31:35.518Z,101141.19
2023-04-27T09:33:37.430Z,101131.28
2023-04-27T09:35:41.911Z,101128.97
2023-04-27T09:37:43.907Z,101135.63
2023-04-27T09:39:45.569Z,101142.22
2023-04-27T09:41:48.666Z,101134.94
2023-04-27T09:43:51.654Z,101135.94
2023-04-27T09:45:55.253Z,101131.75
2023-04-27T09:47:58.207Z,101144.59
2023-04-27T09:50:01.869Z,101137.59
2023-04-27T09:52:03.257Z,101137.88
2023-04-27T09:54:05.209Z,101139.28
2023-04-27T09:56:29.381Z,101143.59
2023-04-27T09:58:53.376Z,101141.63
2023-04-27T10:01:08.232Z,101129.66
2023-04-27T10:03:15.673Z,101150.41
2023-04-27T10:06:05.276Z,101143.94
2023-04-27T10:08:07.283Z,101137.56
2023-04-27T10:10:17.677Z,101146.09
2023-04-27T10:12:28.034Z,101146.41
2023-04-27T10:14:29.428Z,101134.41
2023-04-27T10:16:45.608Z,101138.56
2023-04-27T10:18:56.430Z,101120.84
2023-04-27T10:21:09.958Z,101143.81
2023-04-27T10:23:22.415Z,101140.56
2023-04-27T10:25:25.228Z,101137.53
2023-04-27T10:27:26.654Z,101139.19
2023-04-27T10:29:35.642Z,101144.38
2023-04-27T10:31:43.918Z,101139.13
2023-04-27T10:33:45.318Z,101134.22
2023-04-27T10:35:55.543Z,101131.66
2023-04-27T10:38:05.977Z,101131.72
2023-04-27T10:40:10.357Z,101130.03
2023-04-27T10:42:11.872Z,101128.28
2023-04-27T10:44:16.211Z,101133.19
2023-04-27T10:46:17.631Z,101135.78
2023-04-27T10:48:19.373Z,101121.84
2023-04-27T10:50:22.467Z,101139.44
2023-04-27T10:52:23.907Z,101136.03
2023-04-27T10:54:28.240Z,101134.31
2023-04-27T10:56:29.820Z,101138.09
2023-04-27T10:58:41.559Z,101142.22
2023-04-27T11:00:50.118Z,101131.66
2023-04-27T11:02:53.197Z,101148.75
2023-04-27T11:04:56.262Z,101148.81
2023-04-27T11:06:57.992Z,101130.59
2023-04-27T11:08:59.714Z,101133.28
2023-04-27T11:11:01.212Z,101148.88
2023-04-27T11:13:14.696Z,101146.53
2023-04-27T11:15:16.341Z,101153.88
2023-04-27T11:17:28.989Z,101152.69
2023-04-27T11:19:31.107Z,101145.13
2023-04-27T11:21:32.684Z,101159.81
2023-04-27T11:23:34.769Z,101157.44
2023-04-27T11:25:36.568Z,101159.69
2023-04-27T11:27:39.936Z,101170.44
2023-04-27T11:29:41.362Z,101163.41
2023-04-27T11:31:45.460Z,101157.47
2023-04-27T11:33:50.089Z,101155.81
2023-04-27T11:35:51.549Z,101150.94
2023-04-27T11:37:58.745Z,101162.97
2023-04-27T11:40:00.439Z,101161.69
2023-04-27T11:42:22.339Z,101154.34
2023-04-27T11:44:27.105Z,101148.53
2023-04-27T11:46:28.590Z,101157.91
2023-04-27T11:48:30.316Z,101117.66
2023-04-27T11:50:31.781Z,101136.50
2023-04-27T11:52:35.647Z,101158.00
2023-04-27T11:54:37.381Z,101160.81
2023-04-27T11:56:41.371Z,101156.59
2023-04-27T11:58:44.386Z,101155.72
2023-04-27T12:00:47.556Z,101145.38
2023-04-27T12:02:49.229Z,101139.00
2023-04-27T12:04:51.695Z,101167.22
2023-04-27T12:06:53.313Z,101143.59
2023-04-27T12:08:56.581Z,101155.25
2023-04-27T12:10:58.524Z,101149.47
2023-04-27T12:12:59.908Z,101160.38
2023-04-27T12:15:01.799Z,101155.63
2023-04-27T12:17:03.445Z,101157.81
2023-04-27T12:19:04.927Z,101149.50
2023-04-27T12:21:08.219Z,101151.41
2023-04-27T12:23:10.228Z,101139.16
2023-04-27T12:25:11.665Z,101149.75
2023-04-27T12:27:13.271Z,101144.78
2023-04-27T12:29:15.199Z,101129.34
2023-04-27T12:31:16.648Z,101146.09
2023-04-27T12:33:18.318Z,101142.38
2023-04-27T12:35:19.989Z,101130.09
2023-04-27T12:37:21.400Z,101144.75
2023-04-27T12:39:23.974Z,101157.47
2023-04-27T12:41:25.983Z,101136.66
2023-04-27T12:43:27.907Z,101139.72
2023-04-27T12:45:29.564Z,101143.66
2023-04-27T12:49:35.400Z,101153.28
2023-04-27T12:51:37.539Z,101145.84
2023-04-27T12:53:39.025Z,101148.34
2023-04-27T12:55:40.474Z,101098.91
2023-04-27T12:57:42.093Z,101126.41
2023-04-27T12:59:43.809Z,101116.13
2023-04-27T13:01:45.352Z,101143.41
2023-04-27T13:03:47.817Z,101135.66
2023-04-27T13:05:49.654Z,101133.19
2023-04-27T13:07:52.571Z,101145.75
2023-04-27T13:09:53.985Z,101138.41
2023-04-27T13:11:55.787Z,101137.13
2023-04-27T13:13:57.185Z,101145.03
2023-04-27T13:15:58.727Z,101136.06
2023-04-27T13:18:00.263Z,101122.09
2023-04-27T13:20:01.801Z,101122.91
2023-04-27T13:22:03.533Z,101143.22
2023-04-27T13:24:05.703Z,101132.56
2023-04-27T13:26:07.102Z,101139.84
2023-04-27T13:28:08.840Z,101120.09
2023-04-27T13:30:10.836Z,101131.06
2023-04-27T13:32:12.274Z,101142.75
2023-04-27T13:34:14.052Z,101138.28
2023-04-27T13:36:15.754Z,101097.31
2023-04-27T13:38:17.185Z,101149.63
2023-04-27T13:40:19.129Z,101148.00
2023-04-27T13:42:20.533Z,101154.81
2023-04-27T13:44:21.920Z,101156.16
2023-04-27T13:46:23.443Z,101151.81
2023-04-27T13:48:25.072Z,101160.34
2023-04-27T13:50:26.591Z,101156.03
2023-04-27T13:52:28.145Z,101159.13
2023-04-27T13:54:29.662Z,101153.47
2023-04-27T13:56:31.110Z,101171.69
2023-04-27T13:58:32.763Z,101166.53
2023-04-27T14:00:34.511Z,101158.59
2023-04-27T14:02:36.301Z,101168.41
2023-04-27T14:04:38.187Z,101173.22
2023-04-27T14:06:39.821Z,101143.88
2023-04-27T14:08:41.235Z,101165.31
2023-04-27T14:10:44.360Z,101169.50
2023-04-27T14:12:45.894Z,101164.22
2023-04-27T14:14:47.319Z,101181.16
2023-04-27T14:16:49.063Z,101178.34
2023-04-27T14:18:50.762Z,101174.22
2023-04-27T14:20:52.217Z,101163.19
2023-04-27T14:22:55.398Z,101173.09
2023-04-27T14:24:58.297Z,101155.47
2023-04-27T14:26:59.712Z,101181.03
2023-04-27T14:29:01.112Z,101186.25
2023-04-27T14:31:02.688Z,101163.97
2023-04-27T14:33:04.141Z,101177.25
2023-04-27T14:35:06.024Z,101191.75
2023-04-27T14:37:07.531Z,101189.72
2023-04-27T14:39:08.996Z,101184.19
2023-04-27T14:41:10.394Z,101190.19
2023-04-27T14:43:11.934Z,101180.88
2023-04-27T14:45:13.444Z,101197.94
2023-04-27T14:47:14.845Z,101186.31
2023-04-27T14:49:17.051Z,101184.13
2023-04-27T14:51:18.724Z,101180.06
2023-04-27T14:53:20.669Z,101201.59
2023-04-27T14:55:22.205Z,101191.41
2023-04-27T14:57:23.644Z,101200.34
2023-04-27T14:59:25.064Z,101197.53
2023-04-27T15:01:26.582Z,101198.13
2023-04-27T15:03:28.683Z,101202.72
2023-04-27T15:05:30.310Z,101186.06
2023-04-27T15:07:31.836Z,101188.72
2023-04-27T15:09:34.035Z,101202.72
2023-04-27T15:11:35.614Z,101207.59
2023-04-27T15:13:37.183Z,101205.25
2023-04-27T15:15:38.616Z,101192.22
2023-04-27T15:17:40.274Z,101200.06
2023-04-27T15:19:41.706Z,101210.00
2023-04-27T15:21:43.062Z,101193.75
2023-04-27T15:23:44.528Z,101203.28
2023-04-27T15:25:47.530Z,101188.47
2023-04-27T15:27:48.936Z,101214.03
2023-04-27T15:29:50.349Z,101217.97
2023-04-27T15:31:51.752Z,101204.53
2023-04-27T15:33:53.151Z,101216.56
2023-04-27T15:35:54.665Z,101213.88
2023-04-27T15:37:56.100Z,101220.00
2023-04-27T15:39:57.514Z,101209.22
2023-04-27T15:41:58.993Z,101222.66
2023-04-27T15:44:00.497Z,101190.81
2023-04-27T15:46:05.069Z,101213.47
2023-04-27T15:48:06.711Z,101219.47
2023-04-27T15:50:08.397Z,101216.41
2023-04-27T15:52:09.819Z,101225.94
2023-04-27T15:54:11.397Z,101219.34
2023-04-27T15:56:12.863Z,101222.16
2023-04-27T15:58:15.453Z,101201.41
2023-04-27T16:00:17.274Z,101220.56
2023-04-27T16:02:18.949Z,101208.25
2023-04-27T16:04:20.538Z,101207.97
2023-04-27T16:06:22.343Z,101223.13
2023-04-27T16:08:23.904Z,101204.38
2023-04-27T16:10:25.666Z,101199.59
2023-04-27T16:12:27.390Z,101193.22
2023-04-27T16:14:29.086Z,101207.34
2023-04-27T16:16:30.557Z,101208.56
2023-04-27T16:18:32.149Z,101217.22
2023-04-27T16:20:36.246Z,101212.06
2023-04-27T16:22:38.289Z,101209.16
2023-04-27T16:24:39.819Z,101222.59
2023-04-27T16:26:41.331Z,101221.03
2023-04-27T16:28:43.046Z,101204.09
2023-04-27T16:30:44.697Z,101218.34
2023-04-27T16:32:46.141Z,101226.47
2023-04-27T16:34:47.658Z,101218.78
2023-04-27T16:36:49.247Z,101220.47
2023-04-27T16:38:50.729Z,101231.59
2023-04-27T16:40:52.175Z,101205.41
2023-04-27T16:42:53.570Z,101197.97
2023-04-27T16:44:55.138Z,101228.41
2023-04-27T16:46:56.757Z,101229.84
2023-04-27T16:48:58.271Z,101219.63
2023-04-27T16:50:59.837Z,101215.78
2023-04-27T16:53:19.472Z,101239.72
2023-04-27T16:55:20.860Z,101232.03
2023-04-27T16:57:22.365Z,101214.38
2023-04-27T16:59:23.803Z,101230.34
2023-04-27T17:01:25.438Z,101223.06
2023-04-27T17:03:27.218Z,101240.25
2023-04-27T17:05:28.728Z,101234.13
2023-04-27T17:07:30.351Z,101237.06
2023-04-27T17:09:31.809Z,101249.09
2023-04-27T17:11:33.292Z,101245.53
2023-04-27T17:13:35.046Z,101236.63
2023-04-27T17:15:36.468Z,101238.03
2023-04-27T17:17:38.171Z,101236.28
2023-04-27T17:19:39.707Z,101233.88
2023-04-27T17:21:41.368Z,101229.13
2023-04-27T17:23:42.789Z,101243.34
2023-04-27T17:25:44.404Z,101239.50
2023-04-27T17:27:45.883Z,101241.22
2023-04-27T17:29:47.815Z,101232.91
2023-04-27T17:31:49.365Z,101244.28
2023-04-27T17:33:50.924Z,101204.63
2023-04-27T17:35:52.336Z,101237.50
2023-04-27T17:37:53.877Z,101249.06
2023-04-27T17:39:55.403Z,101250.44
2023-04-27T17:41:56.976Z,101248.03
2023-04-27T17:43:58.590Z,101248.31
2023-04-27T17:46:00.010Z,101248.63
2023-04-27T17:48:01.665Z,101255.19
2023-04-27T17:50:03.672Z,101235.78
2023-04-27T17:52:05.585Z,101259.59
2023-04-27T17:54:07.107Z,101238.53
2023-04-27T17:56:08.594Z,101252.94
2023-04-27T17:58:09.970Z,101262.44
2023-04-27T18:00:11.858Z,101227.94
2023-04-27T18:02:13.551Z,101258.03
2023-04-27T18:04:15.109Z,101249.69
2023-04-27T18:06:16.711Z,101231.50
2023-04-27T18:08:18.300Z,101258.56
2023-04-27T18:10:19.744Z,101272.34
2023-04-27T18:12:21.367Z,101246.41
2023-04-27T18:14:22.891Z,101255.75
2023-04-27T18:16:24.590Z,101270.44
2023-04-27T18:18:26.241Z,101266.63
2023-04-27T18:20:28.069Z,101271.44
2023-04-27T18:22:29.494Z,101264.38
2023-04-27T18:24:31.075Z,101283.25
2023-04-27T18:26:34.936Z,101274.50
2023-04-27T18:28:36.436Z,101280.03
2023-04-27T18:30:37.913Z,101261.44
2023-04-27T18:32:39.313Z,101284.28
2023-04-27T18:34:40.791Z,101280.34
2023-04-27T18:36:42.324Z,101287.44
2023-04-27T18:38:43.784Z,101292.25
2023-04-27T18:40:45.188Z,101296.22
2023-04-27T18:42:47.000Z,101288.63
2023-04-27T18:44:48.469Z,101302.22
2023-04-27T18:46:49.902Z,101303.44
2023-04-27T18:48:51.394Z,101271.91
2023-04-27T18:50:52.793Z,101301.00
2023-04-27T18:52:54.177Z,101306.06
2023-04-27T18:54:55.680Z,101309.66
2023-04-27T18:56:57.088Z,101290.75
2023-04-27T18:58:58.523Z,101306.16
2023-04-27T19:01:00.010Z,101301.84
2023-04-27T19:03:01.651Z,101289.31
2023-04-27T19:05:12.110Z,101317.22
2023-04-27T19:07:14.798Z,101312.19
2023-04-27T19:09:16.500Z,101294.44
2023-04-27T19:11:17.988Z,101316.94
2023-04-27T19:13:19.511Z,101314.88
2023-04-27T19:15:21.068Z,101298.88
2023-04-27T19:17:22.715Z,101276.22
2023-04-27T19:19:24.364Z,101312.19
2023-04-27T19:21:25.791Z,101313.03
2023-04-27T19:23:27.352Z,101296.72
2023-04-27T19:25:28.896Z,101305.41
2023-04-27T19:27:30.328Z,101311.19
2023-04-27T19:29:31.741Z,101295.34
2023-04-27T19:31:33.325Z,101314.16
2023-04-27T19:33:34.796Z,101311.34
2023-04-27T19:35:36.224Z,101313.25
2023-04-27T19:37:40.815Z,101300.09
2023-04-27T19:39:42.274Z,101308.75
2023-04-27T19:41:43.688Z,101314.78
2023-04-27T19:43:45.191Z,101318.41
2023-04-27T19:45:46.774Z,101312.19
2023-04-27T19:47:48.234Z,101321.16
2023-04-27T19:49:49.744Z,101300.00
2023-04-27T19:51:51.187Z,101304.31
2023-04-27T19:53:52.660Z,101320.44
2023-04-27T19:55:54.635Z,101314.25
2023-04-27T19:57:56.045Z,101298.66
2023-04-27T19:59:57.446Z,101306.13
2023-04-27T20:01:59.170Z,101310.09
2023-04-27T20:04:00.931Z,101305.44
2023-04-27T20:06:02.969Z,101325.00
2023-04-27T20:08:04.696Z,101315.47
2023-04-27T20:10:06.766Z,101332.84
2023-04-27T20:12:19.428Z,101326.41
2023-04-27T20:14:31.154Z,101329.03
2023-04-27T20:16:32.904Z,101339.84
2023-04-27T20:18:34.305Z,101333.66
2023-04-27T20:20:35.856Z,101320.28
2023-04-27T20:22:38.534Z,101322.56
2023-04-27T20:24:39.928Z,101350.91
2023-04-27T20:26:41.564Z,101349.38
2023-04-27T20:28:43.002Z,101344.69
2023-04-27T20:30:44.489Z,101325.63
2023-04-27T20:32:46.031Z,101334.25
2023-04-27T20:34:47.561Z,101350.84
2023-04-27T20:36:48.980Z,101343.16
2023-04-27T20:38:50.514Z,101341.56
2023-04-27T20:40:52.809Z,101347.41
2023-04-27T20:42:54.215Z,101341.69
2023-04-27T20:44:55.714Z,101354.75
2023-04-27T20:46:57.220Z,101354.28
2023-04-27T20:48:58.603Z,101355.97
2023-04-27T20:51:00.132Z,101331.94
2023-04-27T20:53:01.644Z,101352.59
2023-04-27T20:55:04.414Z,101352.03
2023-04-27T20:57:05.918Z,101350.53
2023-04-27T20:59:07.906Z,101333.06
2023-04-27T21:01:09.542Z,101342.09
2023-04-27T21:03:11.278Z,101352.22
2023-04-27T21:05:12.775Z,101344.34
2023-04-27T21:07:14.222Z,101354.75
2023-04-27T21:09:15.727Z,101347.25
2023-04-27T21:11:18.170Z,101354.00
2023-04-27T21:13:19.768Z,101350.13
2023-04-27T21:15:21.354Z,101354.22
2023-04-27T21:17:22.855Z,101342.78
2023-04-27T21:19:24.248Z,101364.94
2023-04-27T21:21:25.649Z,101367.34
2023-04-27T21:23:27.116Z,101371.75
2023-04-27T21:25:28.509Z,101362.47
2023-04-27T21:27:30.747Z,101375.50
2023-04-27T21:29:34.681Z,101346.47
2023-04-27T21:31:36.103Z,101350.31
2023-04-27T21:33:37.663Z,101371.34
2023-04-27T21:35:39.178Z,101367.47
2023-04-27T21:37:40.606Z,101372.47
2023-04-27T21:39:42.379Z,101370.94
2023-04-27T21:41:43.839Z,101356.50
2023-04-27T21:43:45.258Z,101370.38
2023-04-27T21:45:46.894Z,101372.94
2023-04-27T21:47:48.399Z,101382.75
2023-04-27T21:49:51.184Z,101375.50
2023-04-27T21:51:53.895Z,101368.81
2023-04-27T21:53:55.437Z,101378.28
2023-04-27T21:55:57.046Z,101359.28
2023-04-27T21:57:58.544Z,101377.63
2023-04-27T22:00:00.195Z,101378.22
2023-04-27T22:02:01.737Z,101375.59
2023-04-27T22:04:04.091Z,101364.59
2023-04-27T22:06:05.812Z,101379.41
2023-04-27T22:08:07.208Z,101376.00
2023-04-27T22:10:09.216Z,101382.03
2023-04-27T22:12:10.656Z,101378.81
2023-04-27T22:14:12.071Z,101380.91
2023-04-27T22:16:14.005Z,101387.06
2023-04-27T22:18:15.794Z,101373.53
2023-04-27T22:20:17.333Z,101353.78
2023-04-27T22:22:18.868Z,101388.63
2023-04-27T22:24:20.561Z,101382.34
2023-04-27T22:26:22.054Z,101372.75
2023-04-27T22:28:23.472Z,101365.75
2023-04-27T22:30:25.246Z,101355.25
2023-04-27T22:32:26.782Z,101374.69
2023-04-27T22:34:28.247Z,101362.28
2023-04-27T22:36:29.904Z,101385.59
2023-04-27T22:38:31.505Z,101382.28
2023-04-27T22:40:32.914Z,101385.41
2023-04-27T22:42:34.603Z,101378.50
2023-04-27T22:44:36.027Z,101389.06
2023-04-27T22:46:37.502Z,101389.34
2023-04-27T22:48:39.449Z,101392.03
2023-04-27T22:50:40.854Z,101393.69
2023-04-27T22:52:42.569Z,101388.00
2023-04-27T22:54:44.079Z,101391.25
2023-04-27T22:56:45.527Z,101391.38
2023-04-27T22:58:47.015Z,101373.41
2023-04-27T23:00:48.597Z,101387.78
2023-04-27T23:02:50.200Z,101376.81
2023-04-27T23:04:51.996Z,101373.25
2023-04-27T23:06:53.591Z,101370.78
2023-04-27T23:08:54.985Z,101384.19
2023-04-27T23:10:56.635Z,101384.25
2023-04-27T23:12:58.235Z,101385.94
2023-04-27T23:14:59.688Z,101386.88
2023-04-27T23:17:01.219Z,101386.03